createdAt,value
2022-12-12T00:00:25.077Z,5.97
2022-12-12T00:02:51.946Z,5.83
2022-12-12T00:05:19.201Z,5.70
2022-12-12T00:07:45.987Z,5.76
2022-12-12T00:10:13.406Z,5.31
2022-12-12T00:12:40.755Z,5.10
2022-12-12T00:15:08.394Z,5.22
2022-12-12T00:17:35.088Z,5.27
2022-12-12T00:20:01.996Z,4.78
2022-12-12T00:22:28.658Z,5.33
2022-12-12T00:24:55.801Z,5.18
2022-12-12T00:27:22.662Z,4.99
2022-12-12T00:29:53.649Z,5.18
2022-12-12T00:32:20.961Z,5.05
2022-12-12T00:34:47.860Z,4.95
2022-12-12T00:37:14.772Z,4.99
2022-12-12T00:39:42.670Z,4.94
2022-12-12T00:42:09.859Z,4.57
2022-12-12T00:44:36.922Z,4.29
2022-12-12T00:47:03.921Z,4.64
2022-12-12T00:49:30.887Z,4.44
2022-12-12T00:51:57.631Z,4.43
2022-12-12T00:54:24.864Z,3.84
2022-12-12T00:56:52.108Z,4.15
2022-12-12T00:59:19.852Z,4.45
2022-12-12T01:01:47.606Z,4.10
2022-12-12T01:04:15.113Z,4.16
2022-12-12T01:06:41.997Z,3.81
2022-12-12T01:09:08.698Z,3.61
2022-12-12T01:11:35.508Z,3.52
2022-12-12T01:14:02.954Z,3.64
2022-12-12T01:16:30.241Z,3.75
2022-12-12T01:18:57.049Z,3.59
2022-12-12T01:21:24.400Z,3.80
2022-12-12T01:23:51.174Z,3.62
2022-12-12T01:26:20.866Z,3.67
2022-12-12T01:28:48.313Z,3.68
2022-12-12T01:31:15.477Z,3.60
2022-12-12T01:33:46.376Z,3.61
2022-12-12T01:36:17.728Z,3.47
2022-12-12T01:38:48.369Z,3.25
2022-12-12T01:41:15.993Z,3.55
2022-12-12T01:43:42.965Z,3.50
2022-12-12T01:46:30.907Z,3.48
2022-12-12T01:49:05.405Z,3.98
2022-12-12T01:51:32.577Z,3.90
2022-12-12T01:54:10.654Z,3.75
2022-12-12T01:56:40.283Z,3.57
2022-12-12T01:59:09.438Z,3.44
2022-12-12T02:01:36.370Z,3.48
2022-12-12T02:04:03.322Z,3.74
2022-12-12T02:06:30.672Z,3.67
2022-12-12T02:09:01.572Z,3.55
2022-12-12T02:11:42.793Z,3.12
2022-12-12T02:14:09.832Z,3.14
2022-12-12T02:16:50.496Z,3.56
2022-12-12T02:19:36.549Z,3.40
2022-12-12T02:22:25.567Z,3.35
2022-12-12T02:25:49.241Z,3.42
2022-12-12T02:28:43.898Z,3.35
2022-12-12T02:31:49.128Z,3.44
2022-12-12T02:34:27.177Z,3.07
2022-12-12T02:37:27.294Z,3.01
2022-12-12T02:39:54.113Z,2.96
2022-12-12T02:42:32.230Z,3.27
2022-12-12T02:44:59.199Z,3.10
2022-12-12T02:47:32.027Z,3.11
2022-12-12T02:50:09.281Z,2.77
2022-12-12T02:52:36.731Z,3.03
2022-12-12T02:55:05.250Z,3.09
2022-12-12T02:57:33.305Z,3.00
2022-12-12T03:00:12.058Z,2.82
2022-12-12T03:03:21.161Z,2.75
2022-12-12T03:06:41.237Z,3.01
2022-12-12T03:09:26.436Z,3.39
2022-12-12T03:12:05.099Z,3.06
2022-12-12T03:14:37.824Z,3.20
2022-12-12T03:17:16.164Z,3.00
2022-12-12T03:19:46.786Z,3.13
2022-12-12T03:22:34.911Z,2.82
2022-12-12T03:25:08.214Z,3.33
2022-12-12T03:27:39.506Z,3.51
2022-12-12T03:30:10.407Z,3.32
2022-12-12T03:32:49.369Z,3.39
2022-12-12T03:35:20.634Z,3.73
2022-12-12T03:37:58.840Z,3.32
2022-12-12T03:40:30.863Z,3.03
2022-12-12T03:42:57.903Z,3.41
2022-12-12T03:45:32.948Z,3.58
2022-12-12T03:48:09.752Z,3.46
2022-12-12T03:50:51.056Z,2.94
2022-12-12T03:53:24.085Z,3.33
2022-12-12T03:55:57.381Z,3.24
2022-12-12T03:58:28.187Z,3.08
2022-12-12T04:00:57.247Z,3.26
2022-12-12T04:03:30.155Z,3.62
2022-12-12T04:06:23.023Z,3.19
2022-12-12T04:09:08.811Z,3.38
2022-12-12T04:12:00.928Z,3.02
2022-12-12T04:14:47.252Z,3.08
2022-12-12T04:17:21.400Z,2.98
2022-12-12T04:20:14.178Z,3.25
2022-12-12T04:23:05.497Z,3.41
2022-12-12T04:26:05.646Z,3.38
2022-12-12T04:28:32.983Z,3.20
2022-12-12T04:31:02.305Z,3.04
2022-12-12T04:33:36.769Z,3.22
2022-12-12T04:36:05.104Z,2.76
2022-12-12T04:38:34.769Z,3.24
2022-12-12T04:41:04.959Z,3.08
2022-12-12T04:43:33.794Z,2.99
2022-12-12T04:46:04.894Z,2.97
2022-12-12T04:48:38.550Z,2.69
2022-12-12T04:51:08.929Z,2.74
2022-12-12T04:53:43.217Z,2.69
2022-12-12T04:56:12.302Z,2.83
2022-12-12T04:58:39.674Z,2.75
2022-12-12T05:01:15.268Z,3.37
2022-12-12T05:03:48.822Z,3.22
2022-12-12T05:06:19.303Z,3.03
2022-12-12T05:08:52.202Z,3.21
2022-12-12T05:11:21.424Z,2.82
2022-12-12T05:13:49.989Z,2.82
2022-12-12T05:16:20.883Z,2.84
2022-12-12T05:18:47.642Z,2.79
2022-12-12T05:21:15.195Z,2.92
2022-12-12T05:23:42.044Z,3.12
2022-12-12T05:26:19.635Z,3.33
2022-12-12T05:28:46.433Z,3.46
2022-12-12T05:31:13.216Z,2.87
2022-12-12T05:33:40.406Z,3.07
2022-12-12T05:36:07.695Z,2.98
2022-12-12T05:38:34.577Z,2.90
2022-12-12T05:41:01.366Z,2.82
2022-12-12T05:43:28.094Z,3.35
2022-12-12T05:45:55.176Z,2.93
2022-12-12T05:48:24.541Z,3.17
2022-12-12T05:50:53.447Z,3.40
2022-12-12T05:53:20.562Z,3.20
2022-12-12T05:55:50.821Z,3.01
2022-12-12T05:58:18.260Z,3.25
2022-12-12T06:00:47.782Z,3.13
2022-12-12T06:03:15.119Z,3.19
2022-12-12T06:05:42.589Z,3.27
2022-12-12T06:08:09.549Z,2.76
2022-12-12T06:10:39.154Z,3.10
2022-12-12T06:13:06.073Z,3.04
2022-12-12T06:15:32.825Z,2.78
2022-12-12T06:17:59.696Z,2.94
2022-12-12T06:20:30.547Z,3.17
2022-12-12T06:22:58.079Z,2.80
2022-12-12T06:25:25.158Z,3.11
2022-12-12T06:27:54.915Z,3.00
2022-12-12T06:30:21.818Z,2.95
2022-12-12T06:32:49.356Z,2.70
2022-12-12T06:35:26.316Z,2.55
2022-12-12T06:37:53.163Z,2.69
2022-12-12T06:40:20.012Z,2.94
2022-12-12T06:42:48.752Z,2.76
2022-12-12T06:45:16.821Z,2.61
2022-12-12T06:47:43.868Z,2.59
2022-12-12T06:50:11.405Z,2.77
2022-12-12T06:52:38.196Z,2.48
2022-12-12T06:55:05.271Z,2.86
2022-12-12T06:57:32.329Z,2.70
2022-12-12T06:59:59.065Z,2.40
2022-12-12T07:02:29.938Z,2.73
2022-12-12T07:04:58.263Z,2.73
2022-12-12T07:07:25.158Z,2.62
2022-12-12T07:09:51.976Z,2.90
2022-12-12T07:12:20.108Z,2.97
2022-12-12T07:14:46.893Z,2.88
2022-12-12T07:17:13.629Z,2.57
2022-12-12T07:19:40.431Z,2.78
2022-12-12T07:22:10.089Z,2.92
2022-12-12T07:24:40.072Z,2.68
2022-12-12T07:27:07.337Z,2.89
2022-12-12T07:29:34.407Z,2.58
2022-12-12T07:32:01.203Z,2.90
2022-12-12T07:34:31.275Z,2.76
2022-12-12T07:37:02.880Z,2.90
2022-12-12T07:39:31.468Z,2.22
2022-12-12T07:41:58.362Z,2.69
2022-12-12T07:44:25.778Z,2.67
2022-12-12T07:46:52.714Z,2.30
2022-12-12T07:49:19.860Z,2.17
2022-12-12T07:51:49.194Z,2.12
2022-12-12T07:54:16.821Z,2.40
2022-12-12T07:56:43.992Z,2.13
2022-12-12T07:59:13.050Z,2.03
2022-12-12T08:01:40.080Z,2.52
2022-12-12T08:04:07.091Z,2.26
2022-12-12T08:06:34.084Z,2.44
2022-12-12T08:09:00.845Z,2.46
2022-12-12T08:11:28.043Z,2.50
2022-12-12T08:13:54.862Z,2.59
2022-12-12T08:16:26.404Z,2.44
2022-12-12T08:18:57.389Z,2.51
2022-12-12T08:21:27.586Z,2.65
2022-12-12T08:23:59.526Z,2.31
2022-12-12T08:26:27.239Z,2.64
2022-12-12T08:28:54.845Z,2.30
2022-12-12T08:31:22.591Z,2.64
2022-12-12T08:33:55.322Z,2.71
2022-12-12T08:36:31.506Z,2.55
2022-12-12T08:39:07.162Z,2.48
2022-12-12T08:41:36.033Z,2.13
2022-12-12T08:44:03.262Z,2.38
2022-12-12T08:46:30.483Z,2.32
2022-12-12T08:48:57.317Z,2.30
2022-12-12T08:51:24.414Z,2.55
2022-12-12T08:53:53.155Z,2.59
2022-12-12T08:56:23.484Z,2.29
2022-12-12T08:58:50.600Z,2.77
2022-12-12T09:01:19.893Z,2.85
2022-12-12T09:03:48.036Z,2.78
2022-12-12T09:06:15.456Z,2.79
2022-12-12T09:08:42.575Z,2.87
2022-12-12T09:11:10.613Z,3.09
2022-12-12T09:16:42.667Z,3.92
2022-12-12T09:19:13.425Z,3.79
2022-12-12T09:21:43.014Z,3.65
2022-12-12T09:24:10.297Z,2.88
2022-12-12T09:26:37.783Z,2.93
2022-12-12T09:29:06.352Z,2.39
2022-12-12T09:31:33.594Z,2.87
2022-12-12T09:34:00.662Z,2.87
2022-12-12T09:36:27.510Z,2.95
2022-12-12T09:38:54.656Z,2.52
2022-12-12T09:41:27.259Z,3.03
2022-12-12T09:44:03.513Z,2.64
2022-12-12T09:46:35.852Z,2.93
2022-12-12T09:49:12.729Z,3.03
2022-12-12T09:54:31.126Z,3.17
2022-12-12T09:57:13.023Z,3.25
2022-12-12T09:59:58.632Z,3.55
2022-12-12T10:02:47.395Z,3.62
2022-12-12T10:05:23.384Z,3.28
2022-12-12T10:08:02.170Z,3.55
2022-12-12T10:10:33.224Z,3.77
2022-12-12T10:13:01.806Z,3.19
2022-12-12T10:15:36.558Z,3.65
2022-12-12T10:18:08.745Z,3.51
2022-12-12T10:20:44.954Z,3.36
2022-12-12T10:23:31.957Z,3.81
2022-12-12T10:26:16.395Z,3.72
2022-12-12T10:28:43.260Z,3.64
2022-12-12T10:31:44.489Z,4.03
2022-12-12T10:34:47.652Z,3.73
2022-12-12T10:37:20.773Z,3.82
2022-12-12T10:39:59.662Z,3.77
2022-12-12T10:42:32.464Z,4.12
2022-12-12T10:45:17.602Z,3.90
2022-12-12T10:47:45.130Z,3.96
2022-12-12T10:50:13.599Z,4.03
2022-12-12T10:52:40.820Z,4.05
2022-12-12T10:55:50.346Z,4.12
2022-12-12T10:58:17.783Z,3.83
2022-12-12T11:00:46.698Z,3.67
2022-12-12T11:03:21.323Z,3.84
2022-12-12T11:05:48.649Z,3.79
2022-12-12T11:08:43.505Z,4.08
2022-12-12T11:11:10.363Z,3.98
2022-12-12T11:13:53.989Z,3.98
2022-12-12T11:16:29.565Z,4.01
2022-12-12T11:19:05.876Z,4.22
2022-12-12T11:21:35.736Z,4.28
2022-12-12T11:24:13.971Z,4.67
2022-12-12T11:26:46.981Z,4.53
2022-12-12T11:29:30.868Z,4.38
2022-12-12T11:31:58.816Z,4.81
2022-12-12T11:34:27.425Z,4.23
2022-12-12T11:36:54.599Z,4.57
2022-12-12T11:39:24.432Z,4.77
2022-12-12T11:42:05.345Z,4.69
2022-12-12T11:44:46.654Z,4.59
2022-12-12T11:47:26.838Z,4.88
2022-12-12T11:49:58.972Z,4.33
2022-12-12T11:52:31.289Z,4.35
2022-12-12T11:54:59.563Z,4.42
2022-12-12T11:57:38.410Z,4.32
2022-12-12T12:00:06.349Z,4.10
2022-12-12T12:02:49.439Z,4.77
2022-12-12T12:05:25.676Z,4.66
2022-12-12T12:08:08.935Z,4.76
2022-12-12T12:11:06.987Z,4.49
2022-12-12T12:13:46.236Z,5.00
2022-12-12T12:16:25.138Z,5.28
2022-12-12T12:19:19.449Z,4.97
2022-12-12T12:22:05.275Z,4.69
2022-12-12T12:24:32.430Z,5.20
2022-12-12T12:27:28.988Z,5.33
2022-12-12T12:30:17.478Z,5.26
2022-12-12T12:32:50.792Z,5.03
2022-12-12T12:35:34.335Z,5.09
2022-12-12T12:38:43.600Z,4.61
2022-12-12T12:41:27.183Z,5.09
2022-12-12T12:44:02.438Z,5.06
2022-12-12T12:46:41.880Z,5.54
2022-12-12T12:49:15.969Z,5.33
2022-12-12T12:51:50.882Z,5.57
2022-12-12T12:54:20.618Z,5.73
2022-12-12T12:56:51.547Z,5.35
2022-12-12T12:59:22.360Z,5.42
2022-12-12T13:01:51.230Z,5.28
2022-12-12T13:04:23.273Z,5.40
2022-12-12T13:06:57.521Z,5.24
2022-12-12T13:09:28.932Z,5.62
2022-12-12T13:12:07.653Z,5.34
2022-12-12T13:14:40.191Z,5.60
2022-12-12T13:17:14.148Z,5.62
2022-12-12T13:19:43.475Z,5.32
2022-12-12T13:22:46.904Z,5.79
2022-12-12T13:25:23.059Z,4.98
2022-12-12T13:27:53.025Z,5.20
2022-12-12T13:30:22.468Z,5.69
2022-12-12T13:32:52.112Z,6.07
2022-12-12T13:35:44.460Z,6.27
2022-12-12T13:38:32.692Z,5.72
2022-12-12T13:41:06.638Z,5.51
2022-12-12T13:43:33.527Z,6.23
2022-12-12T13:46:29.223Z,6.44
2022-12-12T13:49:02.820Z,5.46
2022-12-12T13:51:31.067Z,5.41
2022-12-12T13:54:21.166Z,6.18
2022-12-12T13:57:09.071Z,5.90
2022-12-12T13:59:54.289Z,5.39
2022-12-12T14:02:36.110Z,6.13
2022-12-12T14:05:10.727Z,6.14
2022-12-12T14:07:38.740Z,5.97
2022-12-12T14:10:24.291Z,6.04
2022-12-12T14:12:51.347Z,6.25
2022-12-12T14:15:28.577Z,5.07
2022-12-12T14:18:00.550Z,5.37
2022-12-12T14:20:34.423Z,5.92
2022-12-12T14:23:42.408Z,6.11
2022-12-12T14:26:27.923Z,6.15
2022-12-12T14:29:16.724Z,6.05
2022-12-12T14:32:03.097Z,6.46
2022-12-12T14:34:36.020Z,6.16
2022-12-12T14:37:25.770Z,6.36
2022-12-12T14:39:59.946Z,6.59
2022-12-12T14:43:18.714Z,6.32
2022-12-12T14:45:32.289Z,5.94
2022-12-12T14:48:20.960Z,5.67
2022-12-12T14:51:11.893Z,6.34
2022-12-12T14:53:38.708Z,6.15
2022-12-12T14:56:30.280Z,6.49
2022-12-12T14:59:03.064Z,5.56
2022-12-12T15:01:40.436Z,5.65
2022-12-12T15:04:30.651Z,5.62
2022-12-12T15:06:58.996Z,5.26
2022-12-12T15:09:39.273Z,5.74
2022-12-12T15:12:16.707Z,5.57
2022-12-12T15:14:47.097Z,5.94
2022-12-12T15:17:23.676Z,6.11
2022-12-12T15:19:56.186Z,6.36
2022-12-12T15:22:25.902Z,6.46
2022-12-12T15:24:54.138Z,6.19
2022-12-12T15:27:46.155Z,6.29
2022-12-12T15:30:45.646Z,6.30
2022-12-12T15:33:21.761Z,6.21
2022-12-12T15:36:02.203Z,6.22
2022-12-12T15:38:32.554Z,6.27
2022-12-12T15:41:01.298Z,6.26
2022-12-12T15:43:30.442Z,6.22
2022-12-12T15:45:59.038Z,6.18
2022-12-12T15:48:26.425Z,6.08
2022-12-12T15:50:59.504Z,6.03
2022-12-12T15:53:33.108Z,5.91
2022-12-12T15:56:18.552Z,5.92
2022-12-12T15:59:18.864Z,6.04
2022-12-12T16:01:45.663Z,6.08
2022-12-12T16:04:12.422Z,6.02
2022-12-12T16:06:42.075Z,6.03
2022-12-12T16:09:24.936Z,5.97
2022-12-12T16:11:53.517Z,5.82
2022-12-12T16:14:41.764Z,5.86
2022-12-12T16:17:13.961Z,5.89
2022-12-12T16:19:43.258Z,5.94
2022-12-12T16:22:35.927Z,5.84
2022-12-12T16:25:12.021Z,5.69
2022-12-12T16:27:39.381Z,5.75
2022-12-12T16:30:12.617Z,5.81
2022-12-12T16:32:42.764Z,5.63
2022-12-12T16:35:20.937Z,5.37
2022-12-12T16:37:53.890Z,5.79
2022-12-12T16:41:06.964Z,5.68
2022-12-12T16:43:41.993Z,5.59
2022-12-12T16:46:21.313Z,5.64
2022-12-12T16:48:49.643Z,5.66
2022-12-12T16:51:29.570Z,5.45
2022-12-12T16:53:56.846Z,5.52
2022-12-12T16:56:24.827Z,5.62
2022-12-12T16:58:53.415Z,5.60
2022-12-12T17:01:21.218Z,5.63
2022-12-12T17:07:24.774Z,5.71
2022-12-12T17:09:52.869Z,5.63
2022-12-12T17:16:38.226Z,5.39
2022-12-12T17:19:05.268Z,5.45
2022-12-12T17:21:32.115Z,5.37
2022-12-12T17:24:01.828Z,5.48
2022-12-12T17:30:46.607Z,5.45
2022-12-12T17:33:18.145Z,5.56
2022-12-12T17:35:45.940Z,5.35
2022-12-12T17:38:16.331Z,5.38
2022-12-12T18:14:04.474Z,5.14
2022-12-12T18:16:33.110Z,5.11
2022-12-12T18:19:00.488Z,5.19
2022-12-12T18:24:21.417Z,5.13
2022-12-12T18:26:58.412Z,5.08
2022-12-12T18:29:26.441Z,5.03
2022-12-12T18:31:56.027Z,5.06
2022-12-12T18:34:23.246Z,4.85
2022-12-12T18:36:54.324Z,4.83
2022-12-12T18:39:22.369Z,4.87
2022-12-12T18:41:49.509Z,4.99
2022-12-12T18:44:22.755Z,5.01
2022-12-12T18:46:55.159Z,4.86
2022-12-12T18:49:24.972Z,4.71
2022-12-12T18:51:52.061Z,4.92
2022-12-12T18:57:05.378Z,5.00
2022-12-12T18:59:32.218Z,4.84
2022-12-12T19:02:03.525Z,4.70
2022-12-12T19:04:33.677Z,4.91
2022-12-12T19:07:00.604Z,4.74
2022-12-12T19:09:27.657Z,4.85
2022-12-12T19:12:01.640Z,5.14
2022-12-12T19:14:40.480Z,5.12
2022-12-12T19:17:18.350Z,4.59
2022-12-12T19:19:46.864Z,4.87
2022-12-12T19:22:39.885Z,5.00
2022-12-12T19:25:01.450Z,5.11
2022-12-12T19:27:31.476Z,5.09
2022-12-12T19:29:58.423Z,4.95
2022-12-12T19:32:25.362Z,4.80
2022-12-12T19:34:52.545Z,4.89
2022-12-12T19:37:21.721Z,4.76
2022-12-12T19:39:50.416Z,4.69
2022-12-12T19:42:17.311Z,4.67
2022-12-12T19:44:44.291Z,4.68
2022-12-12T19:47:11.359Z,4.76
2022-12-12T19:49:38.703Z,4.79
2022-12-12T19:52:10.562Z,4.65
2022-12-12T19:54:41.270Z,4.83
2022-12-12T19:57:08.238Z,4.72
2022-12-12T19:59:35.308Z,4.80
2022-12-12T20:02:02.697Z,4.62
2022-12-12T20:04:30.461Z,4.87
2022-12-12T20:07:09.134Z,4.86
2022-12-12T20:09:36.416Z,4.82
2022-12-12T20:12:03.647Z,4.67
2022-12-12T20:14:39.289Z,4.81
2022-12-12T20:17:06.476Z,4.78
2022-12-12T20:19:49.316Z,4.67
2022-12-12T20:22:16.545Z,4.67
2022-12-12T20:24:45.273Z,4.63
2022-12-12T20:27:12.524Z,4.63
2022-12-12T20:29:39.567Z,4.65
2022-12-12T20:32:06.364Z,4.59
2022-12-12T20:34:33.173Z,4.69
2022-12-12T20:37:00.143Z,4.65
2022-12-12T20:39:35.005Z,4.75
2022-12-12T20:42:02.534Z,4.62
2022-12-12T20:44:30.084Z,4.68
2022-12-12T20:46:58.944Z,4.54
2022-12-12T20:49:29.801Z,4.55
2022-12-12T20:51:58.300Z,4.50
2022-12-12T20:54:27.842Z,4.61
2022-12-12T20:56:55.135Z,4.41
2022-12-12T20:59:21.824Z,4.55
2022-12-12T21:01:48.801Z,4.55
2022-12-12T21:04:16.069Z,4.46
2022-12-12T21:06:51.656Z,4.59
2022-12-12T21:09:24.258Z,4.42
2022-12-12T21:11:52.901Z,4.29
2022-12-12T21:14:20.372Z,4.37
2022-12-12T21:16:47.461Z,4.21
2022-12-12T21:19:14.590Z,4.10
2022-12-12T21:21:42.851Z,4.38
2022-12-12T21:24:15.429Z,4.38
2022-12-12T21:26:45.533Z,4.38
2022-12-12T21:29:12.671Z,4.32
2022-12-12T21:31:48.265Z,4.30
2022-12-12T21:34:17.047Z,4.33
2022-12-12T21:36:44.647Z,4.32
2022-12-12T21:39:12.352Z,4.05
2022-12-12T21:41:41.584Z,4.20
2022-12-12T21:44:12.363Z,4.09
2022-12-12T21:46:42.137Z,4.33
2022-12-12T21:49:28.314Z,4.25
2022-12-12T21:52:03.627Z,4.24
2022-12-12T21:54:31.204Z,4.17
2022-12-12T21:57:12.976Z,3.95
2022-12-12T21:59:40.289Z,3.94
2022-12-12T22:02:13.759Z,4.07
2022-12-12T22:04:47.183Z,4.11
2022-12-12T22:07:18.118Z,4.13
2022-12-12T22:10:10.417Z,4.24
2022-12-12T22:12:40.688Z,4.21
2022-12-12T22:15:08.881Z,4.14
2022-12-12T22:17:35.715Z,4.19
2022-12-12T22:20:06.980Z,4.18
2022-12-12T22:22:33.901Z,4.19
2022-12-12T22:25:00.840Z,4.20
2022-12-12T22:27:30.070Z,4.06
2022-12-12T22:29:57.292Z,4.22
2022-12-12T22:32:24.459Z,4.26
2022-12-12T22:34:51.461Z,4.24
2022-12-12T22:37:18.190Z,4.26
2022-12-12T22:39:45.272Z,4.20
2022-12-12T22:42:11.997Z,4.27
2022-12-12T22:44:38.855Z,4.23
2022-12-12T22:47:05.767Z,4.19
2022-12-12T22:49:35.987Z,4.13
2022-12-12T22:52:02.808Z,4.13
2022-12-12T22:54:29.590Z,4.04
2022-12-12T22:56:56.910Z,3.84
2022-12-12T22:59:23.941Z,3.89
2022-12-12T23:01:51.151Z,3.57
2022-12-12T23:04:18.545Z,3.73
2022-12-12T23:06:45.695Z,3.94
2022-12-12T23:09:22.726Z,3.99
2022-12-12T23:11:49.855Z,3.79
2022-12-12T23:14:19.736Z,3.91
2022-12-12T23:16:46.931Z,3.89
2022-12-12T23:19:16.188Z,4.04
2022-12-12T23:21:43.187Z,4.15
2022-12-12T23:24:13.521Z,4.00
2022-12-12T23:26:40.413Z,3.90
2022-12-12T23:29:09.332Z,4.07
2022-12-12T23:31:38.966Z,4.12
2022-12-12T23:34:14.607Z,4.08
2022-12-12T23:36:43.931Z,4.12
2022-12-12T23:39:13.992Z,4.09
2022-12-12T23:41:41.317Z,4.03
2022-12-12T23:44:08.296Z,3.94
2022-12-12T23:46:36.465Z,3.79
2022-12-12T23:49:05.767Z,3.80
2022-12-12T23:51:35.056Z,3.81
2022-12-12T23:54:04.466Z,3.84
2022-12-12T23:56:40.826Z,3.78
2022-12-12T23:59:11.711Z,3.77
